Anthony, Kansas
Current Conditions -  °F | °C
As of 6:30 AM on Monday 20 Oct 2014 (Local Time) from KAVK Reporting Station
Clear Clear  
Wind Chill: 15°   Ceiling: Unl
Heat Index: 15°   Visibility: 10mi
Dew Point: 14°   Wind: 5mph
Humidity: 94%   Direction: 230°SW
Pressure: 30.02"   Gusts: NA
Location:  37.15°N, 98.03°W
Report Text: KAVK 201130Z AUTO 23004KT 10SM CLR 15/14 A3002 RMK AO2
Loading
Personal Weather Stations






























Interactive Weather Map
Tropical Storm Tracking
New forecast layout! Learn more

10-Day Weather Forecast

Advertisements
Track Severe Weather on mobile